createdAt,value
2023-01-28T00:00:59.214Z,17.90
2023-01-28T00:03:26.689Z,18.33
2023-01-28T00:06:03.997Z,18.70
2023-01-28T00:08:31.667Z,19.40
2023-01-28T00:11:03.890Z,20.03
2023-01-28T00:13:32.866Z,19.77
2023-01-28T00:16:07.552Z,20.53
2023-01-28T00:18:36.041Z,23.10
2023-01-28T00:21:05.256Z,21.07
2023-01-28T00:23:38.743Z,24.13
2023-01-28T00:26:11.265Z,22.83
2023-01-28T00:28:38.763Z,21.97
2023-01-28T00:31:17.463Z,21.60
2023-01-28T00:33:49.920Z,21.77
2023-01-28T00:36:19.665Z,19.80
2023-01-28T00:38:53.304Z,18.80
2023-01-28T00:41:24.256Z,19.30
2023-01-28T00:43:52.585Z,18.17
2023-01-28T00:46:22.141Z,18.33
2023-01-28T00:48:49.976Z,18.17
2023-01-28T00:51:20.320Z,17.87
2023-01-28T00:53:48.386Z,18.90
2023-01-28T00:56:18.275Z,18.80
2023-01-28T00:58:46.681Z,18.83
2023-01-28T01:01:21.903Z,19.10
2023-01-28T01:03:57.673Z,20.77
2023-01-28T01:06:26.096Z,21.63
2023-01-28T01:08:53.528Z,21.50
2023-01-28T01:11:21.066Z,21.67
2023-01-28T01:13:57.325Z,21.23
2023-01-28T01:16:28.696Z,21.83
2023-01-28T01:18:57.149Z,20.97
2023-01-28T01:21:28.753Z,20.70
2023-01-28T01:23:56.261Z,22.40
2023-01-28T01:26:25.443Z,23.37
2023-01-28T01:28:53.412Z,22.67
2023-01-28T01:31:22.511Z,23.73
2023-01-28T01:33:52.345Z,22.73
2023-01-28T01:36:22.091Z,22.03
2023-01-28T01:38:54.989Z,23.73
2023-01-28T01:41:30.402Z,23.27
2023-01-28T01:44:01.356Z,21.90
2023-01-28T01:46:46.039Z,21.67
2023-01-28T01:49:17.962Z,20.63
2023-01-28T01:51:50.817Z,21.20
2023-01-28T01:54:20.743Z,21.50
2023-01-28T01:56:50.289Z,20.07
2023-01-28T01:59:26.509Z,21.43
2023-01-28T02:01:55.526Z,20.60
2023-01-28T02:04:27.232Z,20.87
2023-01-28T02:06:55.906Z,22.13
2023-01-28T02:09:38.877Z,23.07
2023-01-28T02:12:26.465Z,22.60
2023-01-28T02:15:00.504Z,24.37
2023-01-28T02:17:28.445Z,23.70
2023-01-28T02:20:08.799Z,23.67
2023-01-28T02:23:22.311Z,23.20
2023-01-28T02:26:37.469Z,23.17
2023-01-28T02:29:42.869Z,22.77
2023-01-28T02:32:28.115Z,23.80
2023-01-28T02:35:03.646Z,21.70
2023-01-28T02:37:41.078Z,22.97
2023-01-28T02:40:18.892Z,22.37
2023-01-28T02:42:46.414Z,22.53
2023-01-28T02:45:46.392Z,24.17
2023-01-28T02:48:14.904Z,23.23
2023-01-28T02:51:28.974Z,23.40
2023-01-28T02:54:15.117Z,24.07
2023-01-28T02:56:48.326Z,22.63
2023-01-28T02:59:49.722Z,23.60
2023-01-28T03:02:26.911Z,21.67
2023-01-28T03:05:08.064Z,22.43
2023-01-28T03:07:38.962Z,19.63
2023-01-28T03:10:14.651Z,19.20
2023-01-28T03:13:03.449Z,23.07
2023-01-28T03:15:58.779Z,23.57
2023-01-28T03:19:03.209Z,24.17
2023-01-28T03:21:55.871Z,23.60
2023-01-28T03:24:54.728Z,23.07
2023-01-28T03:27:51.165Z,23.33
2023-01-28T03:30:48.285Z,23.27
2023-01-28T03:33:35.867Z,22.27
2023-01-28T03:36:22.177Z,22.47
2023-01-28T03:38:49.779Z,22.13
2023-01-28T03:41:23.832Z,21.70
2023-01-28T03:43:52.051Z,19.83
2023-01-28T03:46:19.995Z,20.30
2023-01-28T03:48:47.519Z,18.73
2023-01-28T03:51:15.736Z,19.83
2023-01-28T03:53:43.200Z,20.13
2023-01-28T03:56:18.734Z,19.70
2023-01-28T03:58:53.145Z,21.27
2023-01-28T04:01:21.735Z,21.10
2023-01-28T04:03:49.281Z,18.80
2023-01-28T04:06:16.730Z,20.07
2023-01-28T04:08:49.205Z,20.13
2023-01-28T04:11:16.667Z,20.60
2023-01-28T04:13:45.376Z,21.17
2023-01-28T04:16:14.402Z,23.80
2023-01-28T04:18:42.658Z,23.37
2023-01-28T04:21:10.332Z,22.93
2023-01-28T04:23:37.881Z,22.80
2023-01-28T04:26:05.854Z,23.47
2023-01-28T04:28:33.302Z,22.63
2023-01-28T04:31:00.876Z,23.67
2023-01-28T04:33:28.571Z,21.47
2023-01-28T04:35:56.055Z,23.53
2023-01-28T04:38:23.844Z,23.77
2023-01-28T04:40:52.943Z,23.53
2023-01-28T04:43:20.769Z,24.77
2023-01-28T04:45:49.391Z,25.00
2023-01-28T04:48:17.837Z,25.57
2023-01-28T04:50:46.055Z,24.43
2023-01-28T04:53:13.907Z,24.37
2023-01-28T04:55:41.623Z,25.73
2023-01-28T04:58:09.047Z,26.07
2023-01-28T05:00:36.853Z,24.60
2023-01-28T05:03:04.359Z,25.23
2023-01-28T05:05:31.832Z,25.27
2023-01-28T05:07:59.823Z,24.73
2023-01-28T05:10:28.567Z,23.30
2023-01-28T05:12:56.022Z,25.10
2023-01-28T05:15:23.799Z,25.30
2023-01-28T05:17:51.270Z,24.80
2023-01-28T05:20:18.763Z,22.77
2023-01-28T05:22:46.223Z,24.03
2023-01-28T05:25:14.758Z,23.57
2023-01-28T05:27:42.464Z,23.13
2023-01-28T05:30:11.056Z,24.17
2023-01-28T05:32:38.481Z,23.97
2023-01-28T05:35:06.535Z,23.00
2023-01-28T05:37:33.935Z,23.50
2023-01-28T05:40:01.439Z,23.13
2023-01-28T05:42:28.847Z,23.87
2023-01-28T05:44:56.320Z,24.27
2023-01-28T05:47:23.776Z,23.63
2023-01-28T05:49:51.233Z,22.60
2023-01-28T05:52:18.664Z,24.10
2023-01-28T05:54:46.145Z,22.00
2023-01-28T05:57:13.635Z,22.43
2023-01-28T05:59:41.041Z,22.53
2023-01-28T06:02:08.544Z,21.60
2023-01-28T06:04:36.006Z,21.13
2023-01-28T06:07:03.416Z,22.47
2023-01-28T06:09:30.912Z,21.10
2023-01-28T06:11:58.347Z,20.93
2023-01-28T06:14:25.828Z,21.07
2023-01-28T06:16:53.361Z,21.40
2023-01-28T06:19:20.855Z,21.03
2023-01-28T06:21:48.282Z,21.17
2023-01-28T06:24:15.820Z,20.37
2023-01-28T06:26:43.295Z,19.93
2023-01-28T06:29:10.739Z,21.00
2023-01-28T06:31:38.216Z,20.50
2023-01-28T06:34:06.737Z,20.20
2023-01-28T06:36:34.205Z,21.03
2023-01-28T06:39:01.636Z,19.40
2023-01-28T06:41:29.122Z,19.20
2023-01-28T06:43:56.605Z,19.23
2023-01-28T06:46:25.032Z,20.17
2023-01-28T06:48:53.687Z,22.00
2023-01-28T06:51:21.091Z,19.70
2023-01-28T06:53:48.719Z,19.80
2023-01-28T06:56:16.157Z,18.60
2023-01-28T06:58:43.595Z,19.40
2023-01-28T07:01:10.994Z,20.87
2023-01-28T07:03:38.409Z,21.97
2023-01-28T07:06:06.528Z,21.40
2023-01-28T07:08:34.020Z,21.03
2023-01-28T07:11:01.581Z,20.83
2023-01-28T07:13:29.052Z,20.27
2023-01-28T07:15:56.487Z,19.83
2023-01-28T07:18:24.152Z,20.20
2023-01-28T07:20:51.635Z,20.23
2023-01-28T07:23:19.115Z,21.10
2023-01-28T07:25:46.553Z,22.80
2023-01-28T07:28:14.448Z,22.10
2023-01-28T07:30:41.947Z,22.77
2023-01-28T07:33:09.464Z,23.07
2023-01-28T07:35:37.073Z,25.53
2023-01-28T07:38:04.607Z,23.07
2023-01-28T07:40:32.090Z,21.50
2023-01-28T07:42:59.704Z,24.83
2023-01-28T07:45:30.678Z,23.83
2023-01-28T07:48:05.745Z,24.10
2023-01-28T07:50:36.285Z,23.93
2023-01-28T07:53:07.169Z,23.77
2023-01-28T07:55:38.251Z,22.30
2023-01-28T07:58:08.519Z,23.00
2023-01-28T08:00:38.440Z,23.87
2023-01-28T08:03:14.555Z,21.33
2023-01-28T08:05:51.188Z,21.43
2023-01-28T08:08:18.942Z,21.63
2023-01-28T08:10:47.026Z,22.87
2023-01-28T08:13:16.259Z,21.87
2023-01-28T08:15:44.354Z,22.47
2023-01-28T08:18:14.365Z,23.03
2023-01-28T08:20:44.777Z,21.83
2023-01-28T08:23:16.928Z,22.07
2023-01-28T08:25:45.410Z,21.87
2023-01-28T08:28:13.722Z,22.50
2023-01-28T08:30:42.261Z,22.40
2023-01-28T08:33:12.439Z,23.23
2023-01-28T08:35:40.879Z,21.83
2023-01-28T08:38:09.465Z,22.73
2023-01-28T08:40:37.538Z,22.07
2023-01-28T08:43:05.296Z,20.83
2023-01-28T08:45:33.009Z,23.20
2023-01-28T08:48:04.481Z,22.87
2023-01-28T08:50:36.102Z,21.00
2023-01-28T08:53:10.134Z,21.63
2023-01-28T08:55:37.537Z,22.50
2023-01-28T08:58:07.239Z,20.47
2023-01-28T09:00:36.314Z,21.00
2023-01-28T09:03:06.196Z,20.20
2023-01-28T09:05:35.664Z,20.93
2023-01-28T09:08:05.950Z,18.83
2023-01-28T09:10:33.548Z,18.57
2023-01-28T09:13:13.464Z,19.93
2023-01-28T09:15:41.736Z,19.17
2023-01-28T09:18:09.546Z,18.87
2023-01-28T09:20:38.516Z,18.67
2023-01-28T09:23:06.797Z,19.03
2023-01-28T09:25:36.297Z,18.77
2023-01-28T09:28:05.261Z,20.03
2023-01-28T09:30:34.850Z,18.07
2023-01-28T09:33:03.832Z,18.47
2023-01-28T09:35:31.677Z,18.50
2023-01-28T09:38:00.317Z,19.17
2023-01-28T09:40:36.306Z,19.43
2023-01-28T09:43:34.619Z,18.50
2023-01-28T09:46:06.834Z,21.17
2023-01-28T09:48:49.824Z,19.17
2023-01-28T09:51:36.788Z,20.00
2023-01-28T09:54:15.913Z,19.90
2023-01-28T09:56:47.686Z,18.93
2023-01-28T09:59:22.442Z,18.50
2023-01-28T10:02:18.956Z,19.07
2023-01-28T10:05:22.402Z,17.93
2023-01-28T10:08:50.703Z,17.93
2023-01-28T10:11:45.366Z,17.67
2023-01-28T10:15:18.964Z,18.03
2023-01-28T10:17:51.129Z,16.10
2023-01-28T10:20:31.158Z,16.40
2023-01-28T10:23:04.536Z,15.97
2023-01-28T10:25:33.628Z,15.90
2023-01-28T10:28:03.011Z,16.90
2023-01-28T10:30:35.648Z,16.03
2023-01-28T10:33:14.546Z,15.83
2023-01-28T10:35:42.836Z,16.47
2023-01-28T10:38:17.897Z,16.00
2023-01-28T10:40:48.285Z,15.30
2023-01-28T10:43:38.072Z,15.53
2023-01-28T10:46:23.913Z,16.20
2023-01-28T10:49:03.867Z,16.33
2023-01-28T10:51:43.093Z,15.60
2023-01-28T10:54:28.658Z,14.93
2023-01-28T10:57:02.629Z,14.60
2023-01-28T10:59:32.938Z,13.43
2023-01-28T11:02:29.147Z,14.20
2023-01-28T11:05:26.707Z,13.50
2023-01-28T11:08:06.731Z,13.53
2023-01-28T11:10:38.671Z,12.73
2023-01-28T11:13:28.085Z,13.43
2023-01-28T11:16:04.084Z,11.97
2023-01-28T11:18:41.444Z,11.93
2023-01-28T11:21:20.212Z,10.63
2023-01-28T11:23:59.083Z,11.03
2023-01-28T11:26:33.324Z,10.93
2023-01-28T11:29:00.831Z,10.73
2023-01-28T11:31:29.158Z,9.87
2023-01-28T11:34:02.011Z,8.93
2023-01-28T11:36:32.982Z,9.00
2023-01-28T11:39:21.315Z,9.07
2023-01-28T11:41:48.854Z,12.97
2023-01-28T11:44:27.832Z,10.50
2023-01-28T11:47:23.055Z,10.57
2023-01-28T11:50:17.985Z,9.80
2023-01-28T11:53:17.143Z,10.30
2023-01-28T11:55:56.290Z,9.70
2023-01-28T11:58:33.875Z,9.20
2023-01-28T12:01:11.194Z,9.67
2023-01-28T12:04:09.278Z,9.50
2023-01-28T12:06:47.776Z,9.40
2023-01-28T12:10:04.482Z,8.90
2023-01-28T12:12:58.397Z,8.00
2023-01-28T12:15:47.987Z,7.37
2023-01-28T12:18:57.807Z,7.57
2023-01-28T12:22:03.917Z,7.47
2023-01-28T12:25:20.922Z,8.20
2023-01-28T12:28:37.718Z,9.30
2023-01-28T12:31:39.722Z,10.17
2023-01-28T12:34:31.987Z,10.40
2023-01-28T12:37:48.264Z,12.53
2023-01-28T12:40:56.992Z,10.57
2023-01-28T12:43:34.199Z,10.00
2023-01-28T12:46:27.118Z,10.03
2023-01-28T12:49:25.734Z,10.67
2023-01-28T12:52:24.248Z,9.87
2023-01-28T12:55:11.787Z,12.37
2023-01-28T12:57:39.630Z,9.40
2023-01-28T13:00:21.835Z,8.70
2023-01-28T13:03:15.129Z,8.67
2023-01-28T13:05:59.644Z,9.10
2023-01-28T13:08:29.506Z,9.57
2023-01-28T13:11:01.113Z,8.33
2023-01-28T13:13:42.467Z,8.30
2023-01-28T13:16:12.239Z,8.70
2023-01-28T13:18:48.445Z,8.67
2023-01-28T13:21:27.931Z,8.33
2023-01-28T13:24:10.278Z,8.07
2023-01-28T13:26:57.873Z,8.93
2023-01-28T13:29:25.283Z,10.80
2023-01-28T13:31:56.350Z,10.40
2023-01-28T13:34:36.516Z,11.73
2023-01-28T13:37:40.236Z,8.90
2023-01-28T13:40:13.758Z,14.80
2023-01-28T13:42:42.430Z,10.33
2023-01-28T13:45:15.824Z,12.50
2023-01-28T13:47:53.272Z,10.13
2023-01-28T13:50:42.632Z,9.07
2023-01-28T13:53:48.441Z,7.83
2023-01-28T13:56:26.316Z,7.20
2023-01-28T13:59:31.001Z,7.70
2023-01-28T14:02:06.803Z,5.87
2023-01-28T14:05:09.349Z,5.83
2023-01-28T14:08:15.553Z,5.93
2023-01-28T14:11:14.446Z,5.60
2023-01-28T14:13:50.417Z,6.20
2023-01-28T14:16:20.648Z,6.10
2023-01-28T14:18:49.674Z,6.70
2023-01-28T14:21:21.193Z,6.53
2023-01-28T14:23:55.997Z,6.20
2023-01-28T14:26:55.607Z,5.90
2023-01-28T14:30:06.226Z,5.70
2023-01-28T14:32:34.795Z,5.87
2023-01-28T14:35:09.218Z,5.63
2023-01-28T14:37:36.939Z,5.70
2023-01-28T14:40:08.778Z,5.60
2023-01-28T14:42:53.866Z,4.90
2023-01-28T14:45:56.316Z,6.70
2023-01-28T14:48:26.918Z,6.77
2023-01-28T14:51:20.787Z,6.60
2023-01-28T14:54:39.851Z,5.80
2023-01-28T14:57:44.311Z,5.80
2023-01-28T15:00:22.248Z,5.33
2023-01-28T15:02:49.826Z,6.90
2023-01-28T15:05:25.947Z,7.47
2023-01-28T15:07:54.559Z,4.90
2023-01-28T15:10:37.299Z,5.37
2023-01-28T15:13:24.618Z,4.97
2023-01-28T15:15:58.295Z,5.50
2023-01-28T15:18:35.071Z,5.73
2023-01-28T15:21:03.725Z,5.97
2023-01-28T15:23:40.678Z,6.50
2023-01-28T15:26:18.981Z,6.17
2023-01-28T15:28:47.872Z,6.07
2023-01-28T15:31:26.068Z,6.67
2023-01-28T15:34:03.667Z,5.50
2023-01-28T15:36:32.487Z,6.83
2023-01-28T15:38:59.959Z,6.20
2023-01-28T15:41:39.313Z,6.50
2023-01-28T15:44:06.969Z,6.30
2023-01-28T15:46:34.569Z,5.73
2023-01-28T15:49:04.273Z,6.53
2023-01-28T15:51:34.172Z,6.27
2023-01-28T15:54:10.460Z,6.67
2023-01-28T15:56:38.217Z,7.10
2023-01-28T15:59:26.312Z,7.03
2023-01-28T16:02:23.407Z,6.53
2023-01-28T16:05:03.264Z,6.67
2023-01-28T16:07:36.251Z,6.03
2023-01-28T16:10:04.736Z,6.93
2023-01-28T16:12:32.186Z,7.40
2023-01-28T16:15:02.271Z,6.70
2023-01-28T16:17:39.953Z,7.33
2023-01-28T16:20:21.277Z,7.17
2023-01-28T16:22:49.201Z,7.63
2023-01-28T16:25:22.823Z,7.00
2023-01-28T16:27:50.479Z,7.37
2023-01-28T16:30:19.328Z,6.70
2023-01-28T16:32:47.236Z,5.60
2023-01-28T16:35:46.908Z,6.07
2023-01-28T16:38:18.985Z,8.00
2023-01-28T16:40:47.844Z,7.20
2023-01-28T16:43:17.110Z,6.73
2023-01-28T16:45:46.330Z,6.90
2023-01-28T16:48:14.000Z,7.53
2023-01-28T16:50:43.386Z,6.80
2023-01-28T16:53:22.457Z,5.93
2023-01-28T16:55:51.288Z,5.90
2023-01-28T16:58:26.084Z,6.10
2023-01-28T17:00:54.227Z,5.00
2023-01-28T17:03:22.252Z,4.77
2023-01-28T17:05:49.714Z,4.90
2023-01-28T17:08:17.173Z,5.17
2023-01-28T17:10:44.954Z,6.00
2023-01-28T17:13:12.463Z,5.97
2023-01-28T17:15:39.967Z,5.87
2023-01-28T17:18:09.520Z,7.90
2023-01-28T17:20:40.530Z,10.00
2023-01-28T17:23:09.346Z,7.47
2023-01-28T17:25:41.231Z,7.50
2023-01-28T17:28:10.334Z,7.00
2023-01-28T17:30:42.206Z,6.80
2023-01-28T17:33:10.170Z,7.57
2023-01-28T17:35:37.686Z,7.50
2023-01-28T17:38:06.216Z,7.00
2023-01-28T17:40:33.932Z,7.20
2023-01-28T17:43:01.393Z,7.20
2023-01-28T17:45:33.915Z,7.33
2023-01-28T17:48:01.416Z,6.70
2023-01-28T17:50:28.912Z,6.57
2023-01-28T17:52:58.083Z,7.07
2023-01-28T17:55:26.361Z,6.80
2023-01-28T17:57:53.849Z,7.00
2023-01-28T18:00:22.679Z,6.50
2023-01-28T18:02:51.368Z,6.00
2023-01-28T18:05:19.642Z,6.50
2023-01-28T18:07:47.372Z,6.57
2023-01-28T18:10:15.914Z,6.50
2023-01-28T18:12:43.464Z,8.93
2023-01-28T18:15:11.447Z,7.43
2023-01-28T18:17:38.975Z,7.43
2023-01-28T18:20:07.403Z,6.50
2023-01-28T18:22:34.810Z,5.67
2023-01-28T18:25:03.900Z,5.30
2023-01-28T18:27:31.462Z,5.13
2023-01-28T18:29:59.129Z,5.40
2023-01-28T18:32:26.825Z,4.97
2023-01-28T18:34:54.410Z,4.93
2023-01-28T18:37:21.893Z,5.07
2023-01-28T18:39:49.318Z,4.20
2023-01-28T18:42:16.869Z,5.37
2023-01-28T18:44:44.383Z,7.03
2023-01-28T18:47:11.977Z,4.27
2023-01-28T18:49:42.426Z,4.37
2023-01-28T18:52:10.486Z,4.63
2023-01-28T18:54:37.967Z,5.53
2023-01-28T18:57:05.596Z,4.00
2023-01-28T18:59:33.053Z,4.70
2023-01-28T19:02:01.609Z,4.90
2023-01-28T19:04:29.073Z,4.73
2023-01-28T19:06:57.655Z,4.27
2023-01-28T19:09:25.269Z,3.90
2023-01-28T19:11:52.945Z,4.27
2023-01-28T19:14:21.044Z,3.90
2023-01-28T19:16:48.669Z,4.13
2023-01-28T19:19:16.155Z,4.33
2023-01-28T19:21:43.656Z,5.10
2023-01-28T19:24:14.175Z,5.70
2023-01-28T19:26:45.297Z,5.70
2023-01-28T19:29:15.808Z,4.90
2023-01-28T19:31:44.709Z,5.77
2023-01-28T19:34:13.275Z,6.70
2023-01-28T19:36:42.472Z,6.43
2023-01-28T19:39:12.033Z,6.40
2023-01-28T19:41:39.879Z,5.33
2023-01-28T19:44:07.717Z,5.50
2023-01-28T19:46:36.382Z,4.90
2023-01-28T19:49:06.002Z,5.60
2023-01-28T19:51:33.470Z,5.57
2023-01-28T19:54:00.930Z,6.73
2023-01-28T19:56:30.051Z,4.83
2023-01-28T19:58:57.580Z,5.30
2023-01-28T20:01:29.980Z,5.13
2023-01-28T20:04:00.628Z,4.60
2023-01-28T20:06:31.426Z,4.93
2023-01-28T20:09:09.240Z,5.40
2023-01-28T20:11:37.109Z,5.67
2023-01-28T20:14:04.555Z,7.30
2023-01-28T20:16:35.175Z,5.50
2023-01-28T20:19:18.264Z,5.20
2023-01-28T20:21:47.055Z,5.70
2023-01-28T20:24:16.014Z,6.00
2023-01-28T20:26:45.251Z,6.70
2023-01-28T20:29:18.644Z,7.13
2023-01-28T20:31:54.178Z,6.33
2023-01-28T20:34:32.635Z,5.90
2023-01-28T20:37:00.102Z,4.80
2023-01-28T20:39:27.527Z,4.97
2023-01-28T20:41:55.001Z,4.70
2023-01-28T20:44:22.503Z,4.90
2023-01-28T20:46:49.940Z,5.00
2023-01-28T20:49:17.557Z,5.83
2023-01-28T20:51:45.359Z,6.23
2023-01-28T20:54:13.778Z,7.00
2023-01-28T20:56:41.418Z,6.00
2023-01-28T20:59:10.094Z,5.83
2023-01-28T21:01:38.154Z,6.20
2023-01-28T21:04:10.373Z,6.60
2023-01-28T21:06:40.179Z,6.50
2023-01-28T21:09:08.578Z,7.10
2023-01-28T21:11:36.328Z,7.03
2023-01-28T21:14:03.913Z,6.07
2023-01-28T21:16:32.066Z,7.40
2023-01-28T21:18:59.599Z,6.60
2023-01-28T21:21:29.570Z,6.93
2023-01-28T21:24:00.465Z,7.00
2023-01-28T21:26:29.106Z,6.90
2023-01-28T21:28:57.098Z,7.90
2023-01-28T21:31:26.760Z,16.33
2023-01-28T21:33:58.149Z,7.60
2023-01-28T21:36:26.428Z,52.10
2023-01-28T21:38:57.548Z,37.10
2023-01-28T21:41:25.422Z,11.40
2023-01-28T21:43:55.116Z,8.50
2023-01-28T21:46:29.624Z,9.60
2023-01-28T21:49:03.245Z,7.70
2023-01-28T21:51:40.526Z,10.93
2023-01-28T21:54:13.438Z,8.73
2023-01-28T21:56:43.042Z,7.77
2023-01-28T21:59:30.137Z,7.63
2023-01-28T22:02:03.995Z,7.50
2023-01-28T22:04:35.780Z,7.50
2023-01-28T22:07:05.943Z,8.13
2023-01-28T22:09:33.880Z,8.20
2023-01-28T22:12:08.113Z,8.80
2023-01-28T22:14:37.481Z,8.70
2023-01-28T22:17:11.313Z,7.63
2023-01-28T22:19:39.842Z,7.70
2023-01-28T22:22:07.866Z,7.50
2023-01-28T22:24:35.376Z,6.93
2023-01-28T22:27:02.896Z,7.90
2023-01-28T22:29:30.368Z,7.17
2023-01-28T22:31:57.875Z,8.63
2023-01-28T22:34:25.586Z,9.50
2023-01-28T22:36:53.062Z,7.53
2023-01-28T22:39:20.567Z,7.27
2023-01-28T22:41:48.332Z,6.87
2023-01-28T22:44:16.241Z,6.87
2023-01-28T22:46:43.848Z,6.57
2023-01-28T22:49:12.487Z,6.17
2023-01-28T22:51:39.991Z,6.53
2023-01-28T22:54:07.501Z,6.23
2023-01-28T22:56:34.923Z,5.97
2023-01-28T22:59:04.291Z,6.27
2023-01-28T23:01:32.904Z,6.13
2023-01-28T23:04:00.518Z,6.17
2023-01-28T23:06:28.871Z,5.53
2023-01-28T23:08:56.734Z,5.33
2023-01-28T23:11:28.547Z,5.03
2023-01-28T23:14:19.106Z,5.17
2023-01-28T23:17:05.264Z,4.80
2023-01-28T23:19:52.029Z,4.63
2023-01-28T23:22:52.402Z,6.77
2023-01-28T23:25:21.167Z,5.10
2023-01-28T23:27:48.638Z,4.30
2023-01-28T23:30:16.744Z,4.33
2023-01-28T23:32:49.084Z,3.97
2023-01-28T23:35:19.342Z,4.40
2023-01-28T23:37:47.922Z,4.47
2023-01-28T23:40:16.872Z,4.20
2023-01-28T23:42:49.899Z,3.63
2023-01-28T23:45:18.270Z,3.83
2023-01-28T23:47:45.865Z,3.77
2023-01-28T23:50:13.721Z,4.10
2023-01-28T23:52:41.418Z,4.60
2023-01-28T23:55:09.305Z,4.43
2023-01-28T23:57:37.328Z,4.53
